createdAt,value
2022-08-28T00:00:20.643Z,9.52
2022-08-28T00:02:48.263Z,14.02
2022-08-28T00:05:17.390Z,10.98
2022-08-28T00:07:47.642Z,11.07
2022-08-28T00:10:16.943Z,9.18
2022-08-28T00:12:44.669Z,9.57
2022-08-28T00:15:15.189Z,8.80
2022-08-28T00:20:11.050Z,10.10
2022-08-28T00:22:39.241Z,9.90
2022-08-28T00:25:08.035Z,8.32
2022-08-28T00:27:52.634Z,9.40
2022-08-28T00:30:33.033Z,12.65
2022-08-28T00:33:04.878Z,8.77
2022-08-28T00:35:31.726Z,9.45
2022-08-28T00:37:58.530Z,11.52
2022-08-28T00:40:32.398Z,11.15
2022-08-28T00:43:02.049Z,11.25
2022-08-28T00:45:29.384Z,8.98
2022-08-28T00:47:56.417Z,8.43
2022-08-28T00:50:26.791Z,11.40
2022-08-28T00:52:59.826Z,10.27
2022-08-28T00:55:28.702Z,13.50
2022-08-28T00:58:00.454Z,12.88
2022-08-28T01:00:32.861Z,11.80
2022-08-28T01:03:00.491Z,9.32
2022-08-28T01:05:28.939Z,10.60
2022-08-28T01:07:59.141Z,9.85
2022-08-28T01:10:29.134Z,12.93
2022-08-28T01:12:56.921Z,14.60
2022-08-28T01:15:28.678Z,10.38
2022-08-28T01:18:03.531Z,8.60
2022-08-28T01:20:35.273Z,11.95
2022-08-28T01:23:25.158Z,11.35
2022-08-28T01:25:52.516Z,9.65
2022-08-28T01:28:19.124Z,10.70
2022-08-28T01:30:48.112Z,12.65
2022-08-28T01:33:15.906Z,14.68
2022-08-28T01:35:44.873Z,13.15
2022-08-28T01:38:11.983Z,11.90
2022-08-28T01:40:47.073Z,10.52
2022-08-28T01:43:21.177Z,9.07
2022-08-28T01:45:53.294Z,9.25
2022-08-28T01:48:22.613Z,9.13
2022-08-28T01:50:50.550Z,8.23
2022-08-28T01:53:25.020Z,9.80
2022-08-28T01:55:55.617Z,8.05
2022-08-28T02:00:50.002Z,11.55
2022-08-28T02:03:16.693Z,9.75
2022-08-28T02:05:43.800Z,10.20
2022-08-28T02:08:10.652Z,11.57
2022-08-28T02:10:40.050Z,9.23
2022-08-28T02:13:07.980Z,8.55
2022-08-28T02:15:36.169Z,10.55
2022-08-28T02:18:02.986Z,12.18
2022-08-28T02:20:29.558Z,8.60
2022-08-28T02:22:57.675Z,8.30
2022-08-28T02:25:25.538Z,11.68
2022-08-28T02:27:52.147Z,8.82
2022-08-28T02:30:19.498Z,9.15
2022-08-28T02:32:46.857Z,8.90
2022-08-28T02:35:16.431Z,10.50
2022-08-28T02:37:44.375Z,10.95
2022-08-28T02:40:14.601Z,11.35
2022-08-28T02:42:42.690Z,8.60
2022-08-28T02:45:11.691Z,12.10
2022-08-28T02:47:42.936Z,11.57
2022-08-28T02:50:13.039Z,8.13
2022-08-28T02:52:40.597Z,10.40
2022-08-28T02:55:08.799Z,10.32
2022-08-28T02:57:35.489Z,10.40
2022-08-28T03:00:07.280Z,10.48
2022-08-28T03:02:33.831Z,7.55
2022-08-28T03:05:00.966Z,8.55
2022-08-28T03:07:29.310Z,8.82
2022-08-28T03:09:56.471Z,9.45
2022-08-28T03:12:24.422Z,7.20
2022-08-28T03:14:54.859Z,7.78
2022-08-28T03:17:22.316Z,7.50
2022-08-28T03:19:50.280Z,12.15
2022-08-28T03:22:38.752Z,8.85
2022-08-28T03:25:06.386Z,9.68
2022-08-28T03:27:33.160Z,11.15
2022-08-28T03:29:59.885Z,8.68
2022-08-28T03:32:26.889Z,15.55
2022-08-28T03:34:55.916Z,7.95
2022-08-28T03:37:22.503Z,7.45
2022-08-28T03:39:49.346Z,10.05
2022-08-28T03:42:16.057Z,7.95
2022-08-28T03:44:42.689Z,8.48
2022-08-28T03:47:09.327Z,7.90
2022-08-28T03:49:36.842Z,7.93
2022-08-28T03:52:03.715Z,9.93
2022-08-28T03:54:31.702Z,9.60
2022-08-28T03:56:58.406Z,9.18
2022-08-28T03:59:26.649Z,8.13
2022-08-28T04:01:58.557Z,8.02
2022-08-28T04:04:25.107Z,8.93
2022-08-28T04:06:51.572Z,7.85
2022-08-28T04:09:18.189Z,8.85
2022-08-28T04:11:44.724Z,7.57
2022-08-28T04:14:11.869Z,10.35
2022-08-28T04:16:38.610Z,10.18
2022-08-28T04:19:05.277Z,9.20
2022-08-28T04:21:31.850Z,6.70
2022-08-28T04:23:58.478Z,9.35
2022-08-28T04:26:26.892Z,8.32
2022-08-28T04:28:55.066Z,10.00
2022-08-28T04:31:32.249Z,10.98
2022-08-28T04:34:00.821Z,9.10
2022-08-28T04:36:27.342Z,9.95
2022-08-28T04:38:55.005Z,8.98
2022-08-28T04:41:21.506Z,8.45
2022-08-28T04:43:48.733Z,9.70
2022-08-28T04:46:15.542Z,8.40
2022-08-28T04:48:42.685Z,11.45
2022-08-28T04:51:10.822Z,11.18
2022-08-28T04:53:38.355Z,7.68
2022-08-28T04:56:07.854Z,9.85
2022-08-28T04:58:34.824Z,10.15
2022-08-28T05:01:12.696Z,10.52
2022-08-28T05:03:40.050Z,8.93
2022-08-28T05:06:07.518Z,10.60
2022-08-28T05:08:34.030Z,9.35
2022-08-28T05:11:22.083Z,7.57
2022-08-28T05:14:01.179Z,20.77
2022-08-28T05:16:27.875Z,11.32
2022-08-28T05:18:54.449Z,8.52
2022-08-28T05:21:22.748Z,12.65
2022-08-28T05:23:51.364Z,9.70
2022-08-28T05:26:19.926Z,10.63
2022-08-28T05:28:47.643Z,15.68
2022-08-28T05:31:18.740Z,9.45
2022-08-28T05:33:47.333Z,10.18
2022-08-28T05:36:15.744Z,10.45
2022-08-28T05:38:42.457Z,9.30
2022-08-28T05:41:09.053Z,8.38
2022-08-28T05:43:36.876Z,8.93
2022-08-28T05:46:07.531Z,9.43
2022-08-28T05:48:37.133Z,12.25
2022-08-28T05:51:07.763Z,13.25
2022-08-28T05:53:36.224Z,12.55
2022-08-28T05:56:04.835Z,8.93
2022-08-28T05:58:32.456Z,9.57
2022-08-28T06:01:23.064Z,10.13
2022-08-28T06:06:26.316Z,11.05
2022-08-28T06:08:58.779Z,9.73
2022-08-28T06:11:27.133Z,11.48
2022-08-28T06:14:01.490Z,14.27
2022-08-28T06:16:28.967Z,11.60
2022-08-28T06:18:55.967Z,10.13
2022-08-28T06:21:22.658Z,11.20
2022-08-28T06:23:49.154Z,15.15
2022-08-28T06:26:15.802Z,10.05
2022-08-28T06:28:42.281Z,9.13
2022-08-28T06:31:23.587Z,10.02
2022-08-28T06:33:56.297Z,9.07
2022-08-28T06:36:24.305Z,11.40
2022-08-28T06:38:51.419Z,15.27
2022-08-28T06:41:18.500Z,10.80
2022-08-28T06:43:45.042Z,10.15
2022-08-28T06:46:11.606Z,12.55
2022-08-28T06:48:38.196Z,13.35
2022-08-28T06:51:10.116Z,10.68
2022-08-28T06:53:38.289Z,9.93
2022-08-28T06:56:08.739Z,11.95
2022-08-28T06:58:38.099Z,10.40
2022-08-28T07:01:08.560Z,7.95
2022-08-28T07:03:35.161Z,10.95
2022-08-28T07:06:03.317Z,9.57
2022-08-28T07:08:30.277Z,10.65
2022-08-28T07:10:57.222Z,7.88
2022-08-28T07:13:23.730Z,11.05
2022-08-28T07:15:50.735Z,8.98
2022-08-28T07:18:18.501Z,9.35
2022-08-28T07:20:46.002Z,9.10
2022-08-28T07:23:12.768Z,11.40
2022-08-28T07:25:42.785Z,13.15
2022-08-28T07:28:09.393Z,10.50
2022-08-28T07:30:38.774Z,7.80
2022-08-28T07:33:05.472Z,7.93
2022-08-28T07:35:35.037Z,9.48
2022-08-28T07:38:01.622Z,8.70
2022-08-28T07:40:28.378Z,7.45
2022-08-28T07:43:13.445Z,6.20
2022-08-28T07:45:40.763Z,7.43
2022-08-28T07:48:11.452Z,8.52
2022-08-28T07:50:38.449Z,9.38
2022-08-28T07:53:08.235Z,6.78
2022-08-28T07:55:34.699Z,6.03
2022-08-28T07:58:01.644Z,4.72
2022-08-28T08:00:28.271Z,6.20
2022-08-28T08:02:54.944Z,8.38
2022-08-28T08:05:21.771Z,7.60
2022-08-28T08:07:48.478Z,3.63
2022-08-28T08:10:15.080Z,5.40
2022-08-28T08:12:47.250Z,7.35
2022-08-28T08:15:14.129Z,6.43
2022-08-28T08:17:40.698Z,7.35
2022-08-28T08:20:08.609Z,8.77
2022-08-28T08:22:35.828Z,6.93
2022-08-28T08:25:04.963Z,5.28
2022-08-28T08:27:38.770Z,7.28
2022-08-28T08:30:09.968Z,7.15
2022-08-28T08:32:39.184Z,5.50
2022-08-28T08:35:06.087Z,8.80
2022-08-28T08:37:32.812Z,5.97
2022-08-28T08:39:59.491Z,7.43
2022-08-28T08:42:32.999Z,6.25
2022-08-28T08:45:04.236Z,8.25
2022-08-28T08:47:47.584Z,4.75
2022-08-28T08:50:34.357Z,7.82
2022-08-28T08:53:23.522Z,5.75
2022-08-28T08:55:55.537Z,5.28
2022-08-28T08:58:32.537Z,4.20
2022-08-28T09:01:09.686Z,7.22
2022-08-28T09:04:24.703Z,5.47
2022-08-28T09:07:07.921Z,3.45
2022-08-28T09:09:56.420Z,6.72
2022-08-28T09:12:30.150Z,8.27
2022-08-28T09:15:05.522Z,4.40
2022-08-28T09:17:43.179Z,4.88
2022-08-28T09:20:12.268Z,9.18
2022-08-28T09:22:44.379Z,6.28
2022-08-28T09:25:13.125Z,3.40
2022-08-28T09:27:52.858Z,3.00
2022-08-28T09:30:30.637Z,4.03
2022-08-28T09:33:01.053Z,4.13
2022-08-28T09:35:30.778Z,6.50
2022-08-28T09:38:17.589Z,6.38
2022-08-28T09:41:02.952Z,4.05
2022-08-28T09:43:31.621Z,3.47
2022-08-28T09:46:31.908Z,4.97
2022-08-28T09:49:12.237Z,3.75
2022-08-28T09:51:39.927Z,5.47
2022-08-28T09:54:19.309Z,4.97
2022-08-28T09:56:46.133Z,7.32
2022-08-28T09:59:15.004Z,6.20
2022-08-28T10:01:44.702Z,5.50
2022-08-28T10:04:23.790Z,4.97
2022-08-28T10:07:03.283Z,6.30
2022-08-28T10:09:55.588Z,6.28
2022-08-28T10:12:33.634Z,5.85
2022-08-28T10:15:10.271Z,6.30
2022-08-28T10:17:40.168Z,5.63
2022-08-28T10:20:24.270Z,4.05
2022-08-28T10:23:03.120Z,6.38
2022-08-28T10:25:46.358Z,4.57
2022-08-28T10:28:39.122Z,4.78
2022-08-28T10:31:22.532Z,5.13
2022-08-28T10:33:51.836Z,4.10
2022-08-28T10:36:34.525Z,5.90
2022-08-28T10:39:13.921Z,5.82
2022-08-28T10:41:45.913Z,6.63
2022-08-28T10:44:19.931Z,4.68
2022-08-28T10:46:57.414Z,3.85
2022-08-28T10:49:31.700Z,5.25
2022-08-28T10:52:05.015Z,3.03
2022-08-28T10:54:55.106Z,6.57
2022-08-28T10:57:41.087Z,5.70
2022-08-28T11:00:19.786Z,4.72
2022-08-28T11:02:51.401Z,5.85
2022-08-28T11:05:28.668Z,3.60
2022-08-28T11:08:00.872Z,3.83
2022-08-28T11:10:34.986Z,3.13
2022-08-28T11:13:03.711Z,5.82
2022-08-28T11:15:36.745Z,4.15
2022-08-28T11:18:16.619Z,6.30
2022-08-28T11:20:56.141Z,6.10
2022-08-28T11:23:30.283Z,6.20
2022-08-28T11:26:03.930Z,4.28
2022-08-28T11:28:36.732Z,4.63
2022-08-28T11:31:06.343Z,4.45
2022-08-28T11:33:42.135Z,5.00
2022-08-28T11:36:20.680Z,3.72
2022-08-28T11:38:56.011Z,4.03
2022-08-28T11:41:23.158Z,6.93
2022-08-28T11:44:15.340Z,4.35
2022-08-28T11:46:50.666Z,5.05
2022-08-28T11:49:26.907Z,7.05
2022-08-28T11:52:24.434Z,3.70
2022-08-28T11:55:24.690Z,5.82
2022-08-28T12:00:49.525Z,4.50
2022-08-28T12:03:32.093Z,3.05
2022-08-28T12:06:00.651Z,6.22
2022-08-28T12:08:46.727Z,4.22
2022-08-28T12:11:41.420Z,3.67
2022-08-28T12:14:10.133Z,4.40
2022-08-28T12:17:21.584Z,6.35
2022-08-28T12:19:56.381Z,3.17
2022-08-28T12:22:26.587Z,3.97
2022-08-28T12:25:04.456Z,6.47
2022-08-28T12:27:32.010Z,3.72
2022-08-28T12:30:01.979Z,5.68
2022-08-28T12:32:41.527Z,4.68
2022-08-28T12:35:12.389Z,3.03
2022-08-28T12:37:54.151Z,5.25
2022-08-28T12:40:43.472Z,3.13
2022-08-28T12:43:15.398Z,6.88
2022-08-28T12:45:50.827Z,3.30
2022-08-28T12:48:52.835Z,5.65
2022-08-28T12:51:27.008Z,5.55
2022-08-28T12:53:56.269Z,3.83
2022-08-28T12:56:24.427Z,4.55
2022-08-28T12:58:51.441Z,3.10
2022-08-28T13:01:31.850Z,2.35
2022-08-28T13:04:04.807Z,2.90
2022-08-28T13:06:38.995Z,3.20
2022-08-28T13:09:14.103Z,3.20
2022-08-28T13:11:46.423Z,4.95
2022-08-28T13:14:12.970Z,3.15
2022-08-28T13:16:46.447Z,5.57
2022-08-28T13:19:27.780Z,3.22
2022-08-28T13:22:00.325Z,4.47
2022-08-28T13:24:30.853Z,4.28
2022-08-28T13:27:04.974Z,4.85
2022-08-28T13:29:32.408Z,4.00
2022-08-28T13:32:17.448Z,8.38
2022-08-28T13:35:09.470Z,4.95
2022-08-28T13:37:50.977Z,4.57
2022-08-28T13:40:55.734Z,2.75
2022-08-28T13:43:11.028Z,2.85
2022-08-28T13:45:42.652Z,4.00
2022-08-28T13:48:11.084Z,3.13
2022-08-28T13:50:40.129Z,4.10
2022-08-28T13:53:06.886Z,4.57
2022-08-28T13:55:34.985Z,3.65
2022-08-28T13:58:01.514Z,2.95
2022-08-28T14:00:31.434Z,3.92
2022-08-28T14:03:16.574Z,4.97
2022-08-28T14:05:44.500Z,6.10
2022-08-28T14:08:11.146Z,6.60
2022-08-28T14:10:37.697Z,3.90
2022-08-28T14:13:04.389Z,4.70
2022-08-28T14:15:30.898Z,5.13
2022-08-28T14:17:58.009Z,4.88
2022-08-28T14:20:24.807Z,3.97
2022-08-28T14:22:51.334Z,3.42
2022-08-28T14:25:18.058Z,4.57
2022-08-28T14:27:44.886Z,4.40
2022-08-28T14:30:11.675Z,3.50
2022-08-28T14:32:38.533Z,6.88
2022-08-28T14:35:05.912Z,6.18
2022-08-28T14:37:33.180Z,6.53
2022-08-28T14:39:59.733Z,5.30
2022-08-28T14:42:27.112Z,4.50
2022-08-28T14:44:53.981Z,4.53
2022-08-28T14:47:21.007Z,4.72
2022-08-28T14:49:47.790Z,3.95
2022-08-28T14:52:14.647Z,3.63
2022-08-28T14:54:41.193Z,4.57
2022-08-28T14:57:07.878Z,3.65
2022-08-28T14:59:34.520Z,3.45
2022-08-28T15:02:01.742Z,7.70
2022-08-28T15:04:34.863Z,3.40
2022-08-28T15:07:05.434Z,3.25
2022-08-28T15:09:35.148Z,4.50
2022-08-28T15:12:01.924Z,3.60
2022-08-28T15:14:28.488Z,6.00
2022-08-28T15:16:55.002Z,3.88
2022-08-28T15:19:23.314Z,6.40
2022-08-28T15:21:52.788Z,4.47
2022-08-28T15:24:22.879Z,5.97
2022-08-28T15:29:16.549Z,6.38
2022-08-28T15:31:45.842Z,4.65
2022-08-28T15:34:16.182Z,5.45
2022-08-28T15:36:44.786Z,4.90
2022-08-28T15:39:44.859Z,4.63
2022-08-28T15:42:11.489Z,3.60
2022-08-28T15:44:38.943Z,6.82
2022-08-28T15:47:06.267Z,5.70
2022-08-28T15:49:43.592Z,4.03
2022-08-28T15:52:15.563Z,4.95
2022-08-28T15:54:42.732Z,3.35
2022-08-28T15:57:09.193Z,5.13
2022-08-28T15:59:48.698Z,4.35
2022-08-28T16:02:18.608Z,4.40
2022-08-28T16:04:45.282Z,6.15
2022-08-28T16:07:11.813Z,3.65
2022-08-28T16:09:38.480Z,4.28
2022-08-28T16:12:05.324Z,7.03
2022-08-28T16:14:33.077Z,4.30
2022-08-28T16:17:00.760Z,3.72
2022-08-28T16:19:32.640Z,5.43
2022-08-28T16:21:59.149Z,5.25
2022-08-28T16:24:25.697Z,4.35
2022-08-28T16:26:52.245Z,5.68
2022-08-28T16:29:18.901Z,5.38
2022-08-28T16:31:47.958Z,5.22
2022-08-28T16:34:15.692Z,4.97
2022-08-28T16:36:48.106Z,4.80
2022-08-28T16:39:14.692Z,4.93
2022-08-28T16:41:42.193Z,4.32
2022-08-28T16:44:08.832Z,3.85
2022-08-28T16:46:35.422Z,4.60
2022-08-28T16:49:02.532Z,5.68
2022-08-28T16:51:29.682Z,4.38
2022-08-28T16:53:56.448Z,4.57
2022-08-28T16:56:26.553Z,3.20
2022-08-28T16:58:53.502Z,4.25
2022-08-28T17:01:23.886Z,4.53
2022-08-28T17:03:51.962Z,3.92
2022-08-28T17:06:31.300Z,3.72
2022-08-28T17:08:58.385Z,4.70
2022-08-28T17:11:27.052Z,4.32
2022-08-28T17:13:53.759Z,4.13
2022-08-28T17:16:22.234Z,3.15
2022-08-28T17:18:52.394Z,4.03
2022-08-28T17:21:39.118Z,5.85
2022-08-28T17:24:06.736Z,3.75
2022-08-28T17:26:33.569Z,4.25
2022-08-28T17:29:00.111Z,3.20
2022-08-28T17:31:26.659Z,3.53
2022-08-28T17:33:53.241Z,3.60
2022-08-28T17:36:25.629Z,3.38
2022-08-28T17:39:05.590Z,8.77
2022-08-28T17:41:33.474Z,4.88
2022-08-28T17:44:00.721Z,3.92
2022-08-28T17:46:27.305Z,4.00
2022-08-28T17:48:55.486Z,2.65
2022-08-28T17:51:33.840Z,3.97
2022-08-28T17:54:10.009Z,5.70
2022-08-28T17:56:36.515Z,3.88
2022-08-28T17:59:03.216Z,5.63
2022-08-28T18:01:29.892Z,5.00
2022-08-28T18:03:56.450Z,4.47
2022-08-28T18:06:23.247Z,5.22
2022-08-28T18:08:52.022Z,4.05
2022-08-28T18:11:19.328Z,4.35
2022-08-28T18:13:46.473Z,6.03
2022-08-28T18:16:13.422Z,4.35
2022-08-28T18:18:40.515Z,6.30
2022-08-28T18:21:08.872Z,7.22
2022-08-28T18:23:35.449Z,3.28
2022-08-28T18:26:02.025Z,3.38
2022-08-28T18:28:28.720Z,4.00
2022-08-28T18:30:55.866Z,4.63
2022-08-28T18:33:24.401Z,3.97
2022-08-28T18:35:51.432Z,3.70
2022-08-28T18:38:20.541Z,4.03
2022-08-28T18:40:47.520Z,3.88
2022-08-28T18:43:14.100Z,5.97
2022-08-28T18:45:41.045Z,4.65
2022-08-28T18:48:10.405Z,3.72
2022-08-28T18:50:37.978Z,6.03
2022-08-28T18:53:05.422Z,3.65
2022-08-28T18:55:32.820Z,5.90
2022-08-28T18:58:01.705Z,4.15
2022-08-28T19:00:29.116Z,4.07
2022-08-28T19:02:55.991Z,5.65
2022-08-28T19:05:23.052Z,5.03
2022-08-28T19:07:50.466Z,3.08
2022-08-28T19:10:32.789Z,4.72
2022-08-28T19:13:01.231Z,4.90
2022-08-28T19:15:28.623Z,4.93
2022-08-28T19:17:55.521Z,6.55
2022-08-28T19:20:22.550Z,4.18
2022-08-28T19:22:49.118Z,7.03
2022-08-28T19:25:28.571Z,6.18
2022-08-28T19:27:59.337Z,6.40
2022-08-28T19:30:32.717Z,5.03
2022-08-28T19:33:01.162Z,6.25
2022-08-28T19:35:27.889Z,4.53
2022-08-28T19:37:54.693Z,7.28
2022-08-28T19:40:22.239Z,9.95
2022-08-28T19:42:50.191Z,5.60
2022-08-28T19:45:17.981Z,5.40
2022-08-28T19:47:44.860Z,4.05
2022-08-28T19:50:13.885Z,7.55
2022-08-28T19:52:41.420Z,5.05
2022-08-28T19:55:08.881Z,6.20
2022-08-28T19:57:35.547Z,4.70
2022-08-28T20:00:04.400Z,5.78
2022-08-28T20:02:31.057Z,5.35
2022-08-28T20:04:57.652Z,5.60
2022-08-28T20:07:24.982Z,6.93
2022-08-28T20:09:52.292Z,7.03
2022-08-28T20:12:19.660Z,8.07
2022-08-28T20:14:46.851Z,7.53
2022-08-28T20:17:14.083Z,6.68
2022-08-28T20:19:41.212Z,5.78
2022-08-28T20:22:07.938Z,6.25
2022-08-28T20:24:35.024Z,5.07
2022-08-28T20:27:01.553Z,5.07
2022-08-28T20:29:28.326Z,7.85
2022-08-28T20:31:54.939Z,7.15
2022-08-28T20:34:21.769Z,4.00
2022-08-28T20:36:49.016Z,4.95
2022-08-28T20:39:15.926Z,5.25
2022-08-28T20:41:44.324Z,6.13
2022-08-28T20:44:13.067Z,5.30
2022-08-28T20:46:41.969Z,5.88
2022-08-28T20:49:10.482Z,5.78
2022-08-28T20:51:55.559Z,4.40
2022-08-28T20:54:39.358Z,5.35
2022-08-28T20:57:09.404Z,6.75
2022-08-28T20:59:39.842Z,9.68
2022-08-28T21:02:16.651Z,5.40
2022-08-28T21:04:45.496Z,4.35
2022-08-28T21:07:13.901Z,5.72
2022-08-28T21:10:05.029Z,5.40
2022-08-28T21:12:27.579Z,5.30
2022-08-28T21:14:54.179Z,4.38
2022-08-28T21:17:29.785Z,7.60
2022-08-28T21:20:01.779Z,4.85
2022-08-28T21:22:31.325Z,5.03
2022-08-28T21:24:58.252Z,5.30
2022-08-28T21:27:24.992Z,4.50
2022-08-28T21:29:54.485Z,5.25
2022-08-28T21:32:21.087Z,5.93
2022-08-28T21:34:47.684Z,5.07
2022-08-28T21:37:15.349Z,5.97
2022-08-28T21:39:41.823Z,5.22
2022-08-28T21:42:08.454Z,6.47
2022-08-28T21:44:35.234Z,4.95
2022-08-28T21:47:01.727Z,6.65
2022-08-28T21:49:28.467Z,4.35
2022-08-28T21:51:54.967Z,8.27
2022-08-28T21:54:23.214Z,5.28
2022-08-28T21:56:50.602Z,5.80
2022-08-28T21:59:25.637Z,4.97
2022-08-28T22:01:57.392Z,9.38
2022-08-28T22:04:24.396Z,5.95
2022-08-28T22:06:50.877Z,6.50
2022-08-28T22:09:17.402Z,4.82
2022-08-28T22:11:44.053Z,5.22
2022-08-28T22:14:11.042Z,5.75
2022-08-28T22:16:37.627Z,5.32
2022-08-28T22:19:04.233Z,4.95
2022-08-28T22:21:50.527Z,8.45
2022-08-28T22:24:17.356Z,4.95
2022-08-28T22:26:44.105Z,6.55
2022-08-28T22:29:11.193Z,7.53
2022-08-28T22:31:45.456Z,5.32
2022-08-28T22:34:13.844Z,5.70
2022-08-28T22:36:40.337Z,4.97
2022-08-28T22:39:06.983Z,6.55
2022-08-28T22:41:33.657Z,6.00
2022-08-28T22:44:00.196Z,5.07
2022-08-28T22:46:27.838Z,4.68
2022-08-28T22:48:54.588Z,7.50
2022-08-28T22:51:21.124Z,8.05
2022-08-28T22:53:48.548Z,5.10
2022-08-28T22:56:17.102Z,4.97
2022-08-28T22:58:43.877Z,5.25
2022-08-28T23:01:19.570Z,5.82
2022-08-28T23:03:46.744Z,5.82
2022-08-28T23:06:13.905Z,5.18
2022-08-28T23:08:40.668Z,4.88
2022-08-28T23:11:07.246Z,5.53
2022-08-28T23:13:34.222Z,6.68
2022-08-28T23:16:01.476Z,5.35
2022-08-28T23:18:28.608Z,9.40
2022-08-28T23:20:55.632Z,4.45
2022-08-28T23:23:23.068Z,5.65
2022-08-28T23:25:50.505Z,5.50
2022-08-28T23:28:18.266Z,6.55
2022-08-28T23:30:49.746Z,4.75
2022-08-28T23:33:23.764Z,5.53
2022-08-28T23:35:51.440Z,5.03
2022-08-28T23:38:18.013Z,5.75
2022-08-28T23:40:44.569Z,6.82
2022-08-28T23:43:11.681Z,5.10
2022-08-28T23:45:42.390Z,5.18
2022-08-28T23:48:09.648Z,4.22
2022-08-28T23:50:39.801Z,5.55
2022-08-28T23:53:08.365Z,6.03
2022-08-28T23:55:35.949Z,4.70
2022-08-28T23:58:02.848Z,5.50
